sensor_id;sensor_type;location;lat;lon;timestamp;temperature;humidity
10089;DHT22;51898;49.864;8.550;2023-02-18T00:00:22;11.80;92.00
10089;DHT22;51898;49.864;8.550;2023-02-18T00:03:27;11.80;92.00
10089;DHT22;51898;49.864;8.550;2023-02-18T00:06:32;11.80;92.10
10089;DHT22;51898;49.864;8.550;2023-02-18T00:09:34;11.80;92.10
10089;DHT22;51898;49.864;8.550;2023-02-18T00:12:35;11.80;92.30
10089;DHT22;51898;49.864;8.550;2023-02-18T00:15:38;11.80;92.40
10089;DHT22;51898;49.864;8.550;2023-02-18T00:18:40;11.80;92.70
10089;DHT22;51898;49.864;8.550;2023-02-18T00:21:42;11.80;93.00
10089;DHT22;51898;49.864;8.550;2023-02-18T00:24:44;11.70;93.30
10089;DHT22;51898;49.864;8.550;2023-02-18T00:27:45;11.70;93.60
10089;DHT22;51898;49.864;8.550;2023-02-18T00:30:47;11.70;93.50
10089;DHT22;51898;49.864;8.550;2023-02-18T00:33:49;11.70;93.60
10089;DHT22;51898;49.864;8.550;2023-02-18T00:36:50;11.70;93.90
10089;DHT22;51898;49.864;8.550;2023-02-18T00:39:52;11.60;94.10
10089;DHT22;51898;49.864;8.550;2023-02-18T00:42:54;11.60;94.70
10089;DHT22;51898;49.864;8.550;2023-02-18T00:45:55;11.60;94.80
10089;DHT22;51898;49.864;8.550;2023-02-18T00:48:57;11.60;94.90
10089;DHT22;51898;49.864;8.550;2023-02-18T00:51:59;11.60;95.00
10089;DHT22;51898;49.864;8.550;2023-02-18T00:55:00;11.60;95.00
10089;DHT22;51898;49.864;8.550;2023-02-18T00:58:02;11.60;94.90
10089;DHT22;51898;49.864;8.550;2023-02-18T01:01:05;11.60;94.70
10089;DHT22;51898;49.864;8.550;2023-02-18T01:04:08;11.60;94.30
10089;DHT22;51898;49.864;8.550;2023-02-18T01:07:10;11.60;93.90
10089;DHT22;51898;49.864;8.550;2023-02-18T01:10:11;11.70;93.60
10089;DHT22;51898;49.864;8.550;2023-02-18T01:13:14;11.70;93.50
10089;DHT22;51898;49.864;8.550;2023-02-18T01:16:16;11.70;93.40
10089;DHT22;51898;49.864;8.550;2023-02-18T01:19:18;11.70;93.20
10089;DHT22;51898;49.864;8.550;2023-02-18T01:22:20;11.70;93.00
10089;DHT22;51898;49.864;8.550;2023-02-18T01:25:21;11.70;93.00
10089;DHT22;51898;49.864;8.550;2023-02-18T01:28:23;11.70;93.10
10089;DHT22;51898;49.864;8.550;2023-02-18T01:31:26;11.60;93.10
10089;DHT22;51898;49.864;8.550;2023-02-18T01:34:28;11.70;92.80
10089;DHT22;51898;49.864;8.550;2023-02-18T01:37:29;11.60;92.80
10089;DHT22;51898;49.864;8.550;2023-02-18T01:40:31;11.60;92.80
10089;DHT22;51898;49.864;8.550;2023-02-18T01:43:34;11.60;92.50
10089;DHT22;51898;49.864;8.550;2023-02-18T01:46:35;11.60;91.60
10089;DHT22;51898;49.864;8.550;2023-02-18T01:49:38;11.60;91.60
10089;DHT22;51898;49.864;8.550;2023-02-18T01:52:39;11.60;91.70
10089;DHT22;51898;49.864;8.550;2023-02-18T01:55:41;11.60;92.20
10089;DHT22;51898;49.864;8.550;2023-02-18T01:58:43;11.60;92.90
10089;DHT22;51898;49.864;8.550;2023-02-18T02:01:45;11.50;93.20
10089;DHT22;51898;49.864;8.550;2023-02-18T02:04:48;11.50;93.40
10089;DHT22;51898;49.864;8.550;2023-02-18T02:07:51;11.40;93.40
10089;DHT22;51898;49.864;8.550;2023-02-18T02:11:40;11.40;93.50
10089;DHT22;51898;49.864;8.550;2023-02-18T02:22:04;11.40;93.20
10089;DHT22;51898;49.864;8.550;2023-02-18T02:46:13;11.30;93.10
10089;DHT22;51898;49.864;8.550;2023-02-18T02:52:38;11.40;93.40
10089;DHT22;51898;49.864;8.550;2023-02-18T02:55:41;11.30;93.50
10089;DHT22;51898;49.864;8.550;2023-02-18T02:58:45;11.30;93.00
10089;DHT22;51898;49.864;8.550;2023-02-18T03:02:01;11.40;92.20
10089;DHT22;51898;49.864;8.550;2023-02-18T03:05:25;11.40;91.90
10089;DHT22;51898;49.864;8.550;2023-02-18T03:08:50;11.50;91.90
10089;DHT22;51898;49.864;8.550;2023-02-18T03:15:27;11.40;92.90
10089;DHT22;51898;49.864;8.550;2023-02-18T03:18:33;11.30;93.80
10089;DHT22;51898;49.864;8.550;2023-02-18T03:21:40;11.30;94.20
10089;DHT22;51898;49.864;8.550;2023-02-18T03:24:45;11.20;94.30
10089;DHT22;51898;49.864;8.550;2023-02-18T03:27:54;11.20;94.30
10089;DHT22;51898;49.864;8.550;2023-02-18T03:31:11;11.20;94.30
10089;DHT22;51898;49.864;8.550;2023-02-18T03:34:22;11.20;94.10
10089;DHT22;51898;49.864;8.550;2023-02-18T03:37:26;11.20;94.10
10089;DHT22;51898;49.864;8.550;2023-02-18T03:40:29;11.20;94.20
10089;DHT22;51898;49.864;8.550;2023-02-18T03:43:31;11.20;94.40
10089;DHT22;51898;49.864;8.550;2023-02-18T03:46:34;11.20;94.30
10089;DHT22;51898;49.864;8.550;2023-02-18T03:49:36;11.20;94.10
10089;DHT22;51898;49.864;8.550;2023-02-18T03:52:37;11.20;94.00
10089;DHT22;51898;49.864;8.550;2023-02-18T03:55:39;11.20;93.80
10089;DHT22;51898;49.864;8.550;2023-02-18T03:58:41;11.20;93.50
10089;DHT22;51898;49.864;8.550;2023-02-18T04:01:42;11.20;93.30
10089;DHT22;51898;49.864;8.550;2023-02-18T04:04:44;11.20;93.00
10089;DHT22;51898;49.864;8.550;2023-02-18T04:07:45;11.20;92.60
10089;DHT22;51898;49.864;8.550;2023-02-18T04:10:47;11.20;92.10
10089;DHT22;51898;49.864;8.550;2023-02-18T04:13:49;11.20;91.90
10089;DHT22;51898;49.864;8.550;2023-02-18T04:16:50;11.30;91.10
10089;DHT22;51898;49.864;8.550;2023-02-18T04:19:52;11.30;90.80
10089;DHT22;51898;49.864;8.550;2023-02-18T04:22:54;11.30;90.30
10089;DHT22;51898;49.864;8.550;2023-02-18T04:25:55;11.40;90.00
10089;DHT22;51898;49.864;8.550;2023-02-18T04:28:57;11.40;89.60
10089;DHT22;51898;49.864;8.550;2023-02-18T04:31:59;11.40;89.40
10089;DHT22;51898;49.864;8.550;2023-02-18T04:35:00;11.40;89.30
10089;DHT22;51898;49.864;8.550;2023-02-18T04:38:02;11.40;89.10
10089;DHT22;51898;49.864;8.550;2023-02-18T04:41:04;11.40;88.90
10089;DHT22;51898;49.864;8.550;2023-02-18T04:44:06;11.40;88.30
10089;DHT22;51898;49.864;8.550;2023-02-18T04:47:08;11.40;88.10
10089;DHT22;51898;49.864;8.550;2023-02-18T04:50:10;11.40;88.00
10089;DHT22;51898;49.864;8.550;2023-02-18T04:53:11;11.40;87.90
10089;DHT22;51898;49.864;8.550;2023-02-18T04:56:13;11.40;88.10
10089;DHT22;51898;49.864;8.550;2023-02-18T04:59:15;11.40;88.20
10089;DHT22;51898;49.864;8.550;2023-02-18T05:02:16;11.40;88.30
10089;DHT22;51898;49.864;8.550;2023-02-18T05:05:18;11.30;88.50
10089;DHT22;51898;49.864;8.550;2023-02-18T05:08:19;11.30;88.80
10089;DHT22;51898;49.864;8.550;2023-02-18T05:11:21;11.30;88.90
10089;DHT22;51898;49.864;8.550;2023-02-18T05:14:23;11.30;89.20
10089;DHT22;51898;49.864;8.550;2023-02-18T05:17:24;11.30;89.50
10089;DHT22;51898;49.864;8.550;2023-02-18T05:20:26;11.30;89.30
10089;DHT22;51898;49.864;8.550;2023-02-18T05:23:28;11.30;89.10
10089;DHT22;51898;49.864;8.550;2023-02-18T05:26:30;11.20;89.20
10089;DHT22;51898;49.864;8.550;2023-02-18T05:29:31;11.20;88.90
10089;DHT22;51898;49.864;8.550;2023-02-18T05:32:33;11.20;87.80
10089;DHT22;51898;49.864;8.550;2023-02-18T05:35:35;11.20;86.90
10089;DHT22;51898;49.864;8.550;2023-02-18T05:38:36;11.20;85.20
10089;DHT22;51898;49.864;8.550;2023-02-18T05:41:38;11.30;84.60
10089;DHT22;51898;49.864;8.550;2023-02-18T05:44:39;11.30;83.60
10089;DHT22;51898;49.864;8.550;2023-02-18T05:47:41;11.30;83.10
10089;DHT22;51898;49.864;8.550;2023-02-18T05:50:43;11.30;81.80
10089;DHT22;51898;49.864;8.550;2023-02-18T05:53:45;11.30;81.80
10089;DHT22;51898;49.864;8.550;2023-02-18T05:56:46;11.30;80.90
10089;DHT22;51898;49.864;8.550;2023-02-18T05:59:48;11.30;80.10
10089;DHT22;51898;49.864;8.550;2023-02-18T06:02:50;11.30;78.80
10089;DHT22;51898;49.864;8.550;2023-02-18T06:05:52;11.30;78.30
10089;DHT22;51898;49.864;8.550;2023-02-18T06:08:53;11.30;77.70
10089;DHT22;51898;49.864;8.550;2023-02-18T06:11:55;11.30;76.50
10089;DHT22;51898;49.864;8.550;2023-02-18T06:14:57;11.30;76.20
10089;DHT22;51898;49.864;8.550;2023-02-18T06:17:58;11.30;75.50
10089;DHT22;51898;49.864;8.550;2023-02-18T06:21:00;11.30;75.50
10089;DHT22;51898;49.864;8.550;2023-02-18T06:24:01;11.30;75.70
10089;DHT22;51898;49.864;8.550;2023-02-18T06:27:03;11.30;75.30
10089;DHT22;51898;49.864;8.550;2023-02-18T06:30:06;11.30;75.00
10089;DHT22;51898;49.864;8.550;2023-02-18T06:33:07;11.30;75.00
10089;DHT22;51898;49.864;8.550;2023-02-18T06:36:10;11.40;75.00
10089;DHT22;51898;49.864;8.550;2023-02-18T06:39:12;11.40;74.20
10089;DHT22;51898;49.864;8.550;2023-02-18T06:42:14;11.40;74.00
10089;DHT22;51898;49.864;8.550;2023-02-18T06:45:16;11.40;74.40
10089;DHT22;51898;49.864;8.550;2023-02-18T06:48:18;11.40;73.90
10089;DHT22;51898;49.864;8.550;2023-02-18T06:51:19;11.40;74.00
10089;DHT22;51898;49.864;8.550;2023-02-18T06:54:21;11.40;73.80
10089;DHT22;51898;49.864;8.550;2023-02-18T06:57:23;11.40;74.60
10089;DHT22;51898;49.864;8.550;2023-02-18T07:00:24;11.40;74.20
10089;DHT22;51898;49.864;8.550;2023-02-18T07:03:26;11.40;74.20
10089;DHT22;51898;49.864;8.550;2023-02-18T07:06:28;11.40;74.70
10089;DHT22;51898;49.864;8.550;2023-02-18T07:09:30;11.40;74.60
10089;DHT22;51898;49.864;8.550;2023-02-18T07:12:32;11.50;74.40
10089;DHT22;51898;49.864;8.550;2023-02-18T07:15:33;11.40;73.60
10089;DHT22;51898;49.864;8.550;2023-02-18T07:18:35;11.40;74.00
10089;DHT22;51898;49.864;8.550;2023-02-18T07:21:37;11.50;73.70
10089;DHT22;51898;49.864;8.550;2023-02-18T07:24:38;11.50;73.90
10089;DHT22;51898;49.864;8.550;2023-02-18T07:27:40;11.50;74.00
10089;DHT22;51898;49.864;8.550;2023-02-18T07:30:42;11.50;73.90
10089;DHT22;51898;49.864;8.550;2023-02-18T07:33:46;11.50;74.40
10089;DHT22;51898;49.864;8.550;2023-02-18T07:36:48;11.50;74.10
10089;DHT22;51898;49.864;8.550;2023-02-18T07:39:49;11.50;73.90
10089;DHT22;51898;49.864;8.550;2023-02-18T07:42:51;11.50;73.80
10089;DHT22;51898;49.864;8.550;2023-02-18T07:45:53;11.50;73.70
10089;DHT22;51898;49.864;8.550;2023-02-18T07:48:58;11.50;73.60
10089;DHT22;51898;49.864;8.550;2023-02-18T07:52:00;11.50;74.00
10089;DHT22;51898;49.864;8.550;2023-02-18T07:55:03;11.50;73.70
10089;DHT22;51898;49.864;8.550;2023-02-18T07:58:04;11.50;73.30
10089;DHT22;51898;49.864;8.550;2023-02-18T08:01:08;11.50;73.10
10089;DHT22;51898;49.864;8.550;2023-02-18T08:04:10;11.60;72.60
10089;DHT22;51898;49.864;8.550;2023-02-18T08:07:14;11.60;72.50
10089;DHT22;51898;49.864;8.550;2023-02-18T08:10:16;11.60;72.70
10089;DHT22;51898;49.864;8.550;2023-02-18T08:13:18;11.60;72.30
10089;DHT22;51898;49.864;8.550;2023-02-18T08:16:20;11.60;72.80
10089;DHT22;51898;49.864;8.550;2023-02-18T08:19:22;11.70;72.30
10089;DHT22;51898;49.864;8.550;2023-02-18T08:22:24;11.70;71.70
10089;DHT22;51898;49.864;8.550;2023-02-18T08:25:26;11.70;70.90
10089;DHT22;51898;49.864;8.550;2023-02-18T08:28:30;11.70;70.30
10089;DHT22;51898;49.864;8.550;2023-02-18T08:31:32;11.70;70.60
10089;DHT22;51898;49.864;8.550;2023-02-18T08:34:34;11.80;69.20
10089;DHT22;51898;49.864;8.550;2023-02-18T08:37:35;11.80;68.80
10089;DHT22;51898;49.864;8.550;2023-02-18T08:41:02;11.80;68.90
10089;DHT22;51898;49.864;8.550;2023-02-18T08:44:04;11.80;68.10
10089;DHT22;51898;49.864;8.550;2023-02-18T08:47:06;11.80;68.00
10089;DHT22;51898;49.864;8.550;2023-02-18T08:50:28;11.80;66.60
10089;DHT22;51898;49.864;8.550;2023-02-18T08:53:29;11.70;66.10
10089;DHT22;51898;49.864;8.550;2023-02-18T08:56:31;11.70;66.30
10089;DHT22;51898;49.864;8.550;2023-02-18T08:59:33;11.70;66.50
10089;DHT22;51898;49.864;8.550;2023-02-18T09:02:35;11.70;66.30
10089;DHT22;51898;49.864;8.550;2023-02-18T09:05:38;11.70;66.40
10089;DHT22;51898;49.864;8.550;2023-02-18T09:08:40;11.80;66.50
10089;DHT22;51898;49.864;8.550;2023-02-18T09:11:43;11.80;66.50
10089;DHT22;51898;49.864;8.550;2023-02-18T09:14:46;11.90;66.70
10089;DHT22;51898;49.864;8.550;2023-02-18T09:17:48;11.90;66.60
10089;DHT22;51898;49.864;8.550;2023-02-18T09:20:50;11.90;66.60
10089;DHT22;51898;49.864;8.550;2023-02-18T09:23:52;12.00;66.70
10089;DHT22;51898;49.864;8.550;2023-02-18T09:26:53;12.00;65.70
10089;DHT22;51898;49.864;8.550;2023-02-18T09:29:55;12.10;66.00
10089;DHT22;51898;49.864;8.550;2023-02-18T09:32:57;12.20;65.70
10089;DHT22;51898;49.864;8.550;2023-02-18T09:36:00;12.30;65.30
10089;DHT22;51898;49.864;8.550;2023-02-18T09:39:02;12.30;64.60
10089;DHT22;51898;49.864;8.550;2023-02-18T09:42:12;12.50;65.40
10089;DHT22;51898;49.864;8.550;2023-02-18T09:45:15;12.50;65.40
10089;DHT22;51898;49.864;8.550;2023-02-18T09:48:17;12.60;65.70
10089;DHT22;51898;49.864;8.550;2023-02-18T09:51:19;12.60;65.20
10089;DHT22;51898;49.864;8.550;2023-02-18T09:54:21;12.50;64.20
10089;DHT22;51898;49.864;8.550;2023-02-18T09:57:41;12.40;65.40
10089;DHT22;51898;49.864;8.550;2023-02-18T10:00:47;12.50;65.10
10089;DHT22;51898;49.864;8.550;2023-02-18T10:03:51;12.50;64.70
10089;DHT22;51898;49.864;8.550;2023-02-18T10:06:56;12.60;64.30
10089;DHT22;51898;49.864;8.550;2023-02-18T10:10:04;12.50;63.70
10089;DHT22;51898;49.864;8.550;2023-02-18T10:13:19;12.50;64.80
10089;DHT22;51898;49.864;8.550;2023-02-18T10:16:22;12.60;64.30
10089;DHT22;51898;49.864;8.550;2023-02-18T10:19:35;12.60;64.60
10089;DHT22;51898;49.864;8.550;2023-02-18T10:22:38;12.50;62.80
10089;DHT22;51898;49.864;8.550;2023-02-18T10:25:43;12.50;62.90
10089;DHT22;51898;49.864;8.550;2023-02-18T10:28:45;12.60;63.30
10089;DHT22;51898;49.864;8.550;2023-02-18T10:35:30;12.50;63.50
10089;DHT22;51898;49.864;8.550;2023-02-18T10:38:57;12.50;63.20
10089;DHT22;51898;49.864;8.550;2023-02-18T10:42:37;12.40;63.00
10089;DHT22;51898;49.864;8.550;2023-02-18T10:52:46;12.30;64.40
10089;DHT22;51898;49.864;8.550;2023-02-18T10:55:49;12.40;64.30
10089;DHT22;51898;49.864;8.550;2023-02-18T10:58:51;12.50;64.50
10089;DHT22;51898;49.864;8.550;2023-02-18T11:02:04;12.60;64.10
10089;DHT22;51898;49.864;8.550;2023-02-18T11:05:22;12.60;64.10
10089;DHT22;51898;49.864;8.550;2023-02-18T11:08:27;12.60;64.50
10089;DHT22;51898;49.864;8.550;2023-02-18T11:11:33;12.60;63.90
10089;DHT22;51898;49.864;8.550;2023-02-18T11:14:38;12.70;64.60
10089;DHT22;51898;49.864;8.550;2023-02-18T11:17:42;12.70;64.70
10089;DHT22;51898;49.864;8.550;2023-02-18T11:20:54;12.70;64.50
10089;DHT22;51898;49.864;8.550;2023-02-18T11:24:06;12.60;65.30
10089;DHT22;51898;49.864;8.550;2023-02-18T11:27:10;12.50;65.10
10089;DHT22;51898;49.864;8.550;2023-02-18T11:30:25;12.50;64.70
10089;DHT22;51898;49.864;8.550;2023-02-18T11:33:40;12.50;65.80
10089;DHT22;51898;49.864;8.550;2023-02-18T11:36:44;12.50;64.40
10089;DHT22;51898;49.864;8.550;2023-02-18T11:39:49;12.40;64.30
10089;DHT22;51898;49.864;8.550;2023-02-18T11:43:05;12.30;64.20
10089;DHT22;51898;49.864;8.550;2023-02-18T11:46:12;12.40;63.80
10089;DHT22;51898;49.864;8.550;2023-02-18T11:49:22;12.50;64.10
10089;DHT22;51898;49.864;8.550;2023-02-18T11:52:37;12.50;63.40
10089;DHT22;51898;49.864;8.550;2023-02-18T11:56:00;12.40;63.30
10089;DHT22;51898;49.864;8.550;2023-02-18T11:59:03;12.40;63.80
10089;DHT22;51898;49.864;8.550;2023-02-18T12:05:23;12.40;63.60
10089;DHT22;51898;49.864;8.550;2023-02-18T12:08:39;12.30;64.00
10089;DHT22;51898;49.864;8.550;2023-02-18T12:15:50;12.20;64.60
10089;DHT22;51898;49.864;8.550;2023-02-18T12:19:21;12.20;64.80
10089;DHT22;51898;49.864;8.550;2023-02-18T12:25:54;12.10;65.10
10089;DHT22;51898;49.864;8.550;2023-02-18T12:36:30;12.40;65.60
10089;DHT22;51898;49.864;8.550;2023-02-18T12:39:59;12.50;65.70
10089;DHT22;51898;49.864;8.550;2023-02-18T13:00:11;12.60;65.30
10089;DHT22;51898;49.864;8.550;2023-02-18T13:07:33;12.70;65.10
10089;DHT22;51898;49.864;8.550;2023-02-18T13:14:17;12.90;65.00
10089;DHT22;51898;49.864;8.550;2023-02-18T13:17:20;12.90;64.70
10089;DHT22;51898;49.864;8.550;2023-02-18T13:20:41;12.90;65.20
10089;DHT22;51898;49.864;8.550;2023-02-18T13:23:51;12.90;64.70
10089;DHT22;51898;49.864;8.550;2023-02-18T13:27:00;12.90;65.20
10089;DHT22;51898;49.864;8.550;2023-02-18T13:30:26;12.90;65.40
10089;DHT22;51898;49.864;8.550;2023-02-18T13:37:01;12.90;65.30
10089;DHT22;51898;49.864;8.550;2023-02-18T13:40:13;12.80;65.70
10089;DHT22;51898;49.864;8.550;2023-02-18T13:46:25;12.60;66.50
10089;DHT22;51898;49.864;8.550;2023-02-18T13:49:33;12.50;67.00
10089;DHT22;51898;49.864;8.550;2023-02-18T13:52:35;12.50;67.60
10089;DHT22;51898;49.864;8.550;2023-02-18T13:56:07;12.50;67.40
10089;DHT22;51898;49.864;8.550;2023-02-18T13:59:18;12.50;67.60
10089;DHT22;51898;49.864;8.550;2023-02-18T14:05:38;12.50;67.90
10089;DHT22;51898;49.864;8.550;2023-02-18T14:08:40;12.50;67.70
10089;DHT22;51898;49.864;8.550;2023-02-18T14:14:57;12.50;67.90
10089;DHT22;51898;49.864;8.550;2023-02-18T14:18:09;12.40;67.70
10089;DHT22;51898;49.864;8.550;2023-02-18T14:21:38;12.40;67.90
10089;DHT22;51898;49.864;8.550;2023-02-18T14:24:47;12.40;68.20
10089;DHT22;51898;49.864;8.550;2023-02-18T14:27:51;12.30;68.70
10089;DHT22;51898;49.864;8.550;2023-02-18T14:30:53;12.30;68.60
10089;DHT22;51898;49.864;8.550;2023-02-18T14:37:33;12.30;70.70
10089;DHT22;51898;49.864;8.550;2023-02-18T14:41:30;12.20;70.60
10089;DHT22;51898;49.864;8.550;2023-02-18T14:48:10;12.10;70.80
10089;DHT22;51898;49.864;8.550;2023-02-18T14:51:19;12.00;71.70
10089;DHT22;51898;49.864;8.550;2023-02-18T14:54:25;12.00;72.60
10089;DHT22;51898;49.864;8.550;2023-02-18T14:57:43;11.90;73.40
10089;DHT22;51898;49.864;8.550;2023-02-18T15:00:45;11.90;73.80
10089;DHT22;51898;49.864;8.550;2023-02-18T15:03:49;11.80;75.10
10089;DHT22;51898;49.864;8.550;2023-02-18T15:07:02;11.80;74.50
10089;DHT22;51898;49.864;8.550;2023-02-18T15:10:04;11.70;75.30
10089;DHT22;51898;49.864;8.550;2023-02-18T15:13:27;11.60;75.70
10089;DHT22;51898;49.864;8.550;2023-02-18T15:16:32;11.60;75.20
10089;DHT22;51898;49.864;8.550;2023-02-18T15:19:41;11.70;74.80
10089;DHT22;51898;49.864;8.550;2023-02-18T15:22:43;11.70;73.60
10089;DHT22;51898;49.864;8.550;2023-02-18T15:25:50;11.80;73.80
10089;DHT22;51898;49.864;8.550;2023-02-18T15:29:04;11.90;72.80
10089;DHT22;51898;49.864;8.550;2023-02-18T15:32:20;11.90;72.30
10089;DHT22;51898;49.864;8.550;2023-02-18T15:35:29;11.90;72.20
10089;DHT22;51898;49.864;8.550;2023-02-18T15:38:32;11.90;71.50
10089;DHT22;51898;49.864;8.550;2023-02-18T15:41:34;12.00;72.10
10089;DHT22;51898;49.864;8.550;2023-02-18T15:44:36;11.90;71.80
10089;DHT22;51898;49.864;8.550;2023-02-18T15:47:46;11.90;71.90
10089;DHT22;51898;49.864;8.550;2023-02-18T15:50:52;11.90;71.70
10089;DHT22;51898;49.864;8.550;2023-02-18T15:53:57;11.90;71.80
10089;DHT22;51898;49.864;8.550;2023-02-18T15:57:01;11.90;71.50
10089;DHT22;51898;49.864;8.550;2023-02-18T16:00:29;11.80;71.70
10089;DHT22;51898;49.864;8.550;2023-02-18T16:06:45;11.90;71.90
10089;DHT22;51898;49.864;8.550;2023-02-18T16:09:47;11.80;72.40
10089;DHT22;51898;49.864;8.550;2023-02-18T16:12:52;11.80;72.40
10089;DHT22;51898;49.864;8.550;2023-02-18T16:15:54;11.80;72.50
10089;DHT22;51898;49.864;8.550;2023-02-18T16:18:56;11.80;72.50
10089;DHT22;51898;49.864;8.550;2023-02-18T16:22:03;11.80;72.70
10089;DHT22;51898;49.864;8.550;2023-02-18T16:28:25;11.70;72.70
10089;DHT22;51898;49.864;8.550;2023-02-18T16:31:32;11.70;73.20
10089;DHT22;51898;49.864;8.550;2023-02-18T16:34:33;11.60;73.50
10089;DHT22;51898;49.864;8.550;2023-02-18T16:37:36;11.60;73.40
10089;DHT22;51898;49.864;8.550;2023-02-18T16:40:41;11.60;73.40
10089;DHT22;51898;49.864;8.550;2023-02-18T16:43:43;11.60;73.90
10089;DHT22;51898;49.864;8.550;2023-02-18T16:46:45;11.50;73.90
10089;DHT22;51898;49.864;8.550;2023-02-18T16:49:48;11.50;73.80
10089;DHT22;51898;49.864;8.550;2023-02-18T16:52:51;11.50;74.00
10089;DHT22;51898;49.864;8.550;2023-02-18T16:55:53;11.40;74.10
10089;DHT22;51898;49.864;8.550;2023-02-18T16:58:54;11.40;74.60
10089;DHT22;51898;49.864;8.550;2023-02-18T17:01:56;11.30;74.60
10089;DHT22;51898;49.864;8.550;2023-02-18T17:04:58;11.30;74.80
10089;DHT22;51898;49.864;8.550;2023-02-18T17:11:25;11.20;75.30
10089;DHT22;51898;49.864;8.550;2023-02-18T17:14:28;11.20;75.50
10089;DHT22;51898;49.864;8.550;2023-02-18T17:17:30;11.10;75.60
10089;DHT22;51898;49.864;8.550;2023-02-18T17:20:32;11.10;75.50
10089;DHT22;51898;49.864;8.550;2023-02-18T17:23:34;11.10;75.70
10089;DHT22;51898;49.864;8.550;2023-02-18T17:26:36;11.10;75.80
10089;DHT22;51898;49.864;8.550;2023-02-18T17:29:37;11.10;75.90
10089;DHT22;51898;49.864;8.550;2023-02-18T17:32:39;11.10;75.90
10089;DHT22;51898;49.864;8.550;2023-02-18T17:35:42;11.10;76.20
10089;DHT22;51898;49.864;8.550;2023-02-18T17:38:44;11.10;76.20
10089;DHT22;51898;49.864;8.550;2023-02-18T17:41:46;11.10;76.30
10089;DHT22;51898;49.864;8.550;2023-02-18T17:44:48;11.10;76.00
10089;DHT22;51898;49.864;8.550;2023-02-18T17:47:49;11.10;76.10
10089;DHT22;51898;49.864;8.550;2023-02-18T17:50:51;11.10;76.20
10089;DHT22;51898;49.864;8.550;2023-02-18T17:53:53;11.10;76.00
10089;DHT22;51898;49.864;8.550;2023-02-18T17:57:01;11.00;76.20
10089;DHT22;51898;49.864;8.550;2023-02-18T18:00:03;11.00;76.20
10089;DHT22;51898;49.864;8.550;2023-02-18T18:03:05;11.00;76.30
10089;DHT22;51898;49.864;8.550;2023-02-18T18:06:18;11.00;76.20
10089;DHT22;51898;49.864;8.550;2023-02-18T18:09:20;11.00;76.40
10089;DHT22;51898;49.864;8.550;2023-02-18T18:12:22;11.00;76.40
10089;DHT22;51898;49.864;8.550;2023-02-18T18:15:27;11.00;76.60
10089;DHT22;51898;49.864;8.550;2023-02-18T18:18:29;11.00;76.40
10089;DHT22;51898;49.864;8.550;2023-02-18T18:21:33;11.00;76.10
10089;DHT22;51898;49.864;8.550;2023-02-18T18:24:35;11.00;76.40
10089;DHT22;51898;49.864;8.550;2023-02-18T18:27:37;11.00;76.40
10089;DHT22;51898;49.864;8.550;2023-02-18T18:30:41;11.00;76.70
10089;DHT22;51898;49.864;8.550;2023-02-18T18:33:44;11.00;76.40
10089;DHT22;51898;49.864;8.550;2023-02-18T18:36:49;11.00;76.90
10089;DHT22;51898;49.864;8.550;2023-02-18T18:39:50;10.90;77.30
10089;DHT22;51898;49.864;8.550;2023-02-18T18:42:53;10.90;77.50
10089;DHT22;51898;49.864;8.550;2023-02-18T18:45:55;10.90;77.80
10089;DHT22;51898;49.864;8.550;2023-02-18T18:48:57;10.80;77.70
10089;DHT22;51898;49.864;8.550;2023-02-18T18:51:58;10.80;77.70
10089;DHT22;51898;49.864;8.550;2023-02-18T18:55:00;10.80;77.80
10089;DHT22;51898;49.864;8.550;2023-02-18T18:58:03;10.80;77.70
10089;DHT22;51898;49.864;8.550;2023-02-18T19:01:13;10.80;77.60
10089;DHT22;51898;49.864;8.550;2023-02-18T19:04:16;10.80;77.80
10089;DHT22;51898;49.864;8.550;2023-02-18T19:07:19;10.80;77.70
10089;DHT22;51898;49.864;8.550;2023-02-18T19:10:21;10.80;77.80
10089;DHT22;51898;49.864;8.550;2023-02-18T19:13:26;10.80;77.70
10089;DHT22;51898;49.864;8.550;2023-02-18T19:16:33;10.80;77.70
10089;DHT22;51898;49.864;8.550;2023-02-18T19:19:37;10.80;77.80
10089;DHT22;51898;49.864;8.550;2023-02-18T19:22:39;10.70;77.90
10089;DHT22;51898;49.864;8.550;2023-02-18T19:25:41;10.70;77.80
10089;DHT22;51898;49.864;8.550;2023-02-18T19:28:44;10.70;77.90
10089;DHT22;51898;49.864;8.550;2023-02-18T19:31:45;10.70;77.90
10089;DHT22;51898;49.864;8.550;2023-02-18T19:34:47;10.70;78.00
10089;DHT22;51898;49.864;8.550;2023-02-18T19:37:49;10.70;78.00
10089;DHT22;51898;49.864;8.550;2023-02-18T19:40:51;10.70;77.80
10089;DHT22;51898;49.864;8.550;2023-02-18T19:43:54;10.70;78.00
10089;DHT22;51898;49.864;8.550;2023-02-18T19:46:55;10.70;77.80
10089;DHT22;51898;49.864;8.550;2023-02-18T19:50:00;10.70;78.00
10089;DHT22;51898;49.864;8.550;2023-02-18T19:53:02;10.70;78.00
10089;DHT22;51898;49.864;8.550;2023-02-18T19:56:04;10.70;78.20
10089;DHT22;51898;49.864;8.550;2023-02-18T19:59:09;10.70;78.40
10089;DHT22;51898;49.864;8.550;2023-02-18T20:02:22;10.70;78.40
10089;DHT22;51898;49.864;8.550;2023-02-18T20:05:24;10.70;78.40
10089;DHT22;51898;49.864;8.550;2023-02-18T20:08:26;10.70;78.50
10089;DHT22;51898;49.864;8.550;2023-02-18T20:11:29;10.60;79.30
10089;DHT22;51898;49.864;8.550;2023-02-18T20:14:32;10.60;79.60
10089;DHT22;51898;49.864;8.550;2023-02-18T20:17:33;10.50;80.30
10089;DHT22;51898;49.864;8.550;2023-02-18T20:20:35;10.50;80.50
10089;DHT22;51898;49.864;8.550;2023-02-18T20:23:36;10.40;80.90
10089;DHT22;51898;49.864;8.550;2023-02-18T20:26:38;10.40;81.10
10089;DHT22;51898;49.864;8.550;2023-02-18T20:29:40;10.40;81.30
10089;DHT22;51898;49.864;8.550;2023-02-18T20:32:41;10.30;81.50
10089;DHT22;51898;49.864;8.550;2023-02-18T20:35:43;10.30;81.70
10089;DHT22;51898;49.864;8.550;2023-02-18T20:38:48;10.20;81.90
10089;DHT22;51898;49.864;8.550;2023-02-18T20:41:52;10.20;82.20
10089;DHT22;51898;49.864;8.550;2023-02-18T20:44:54;10.20;82.00
10089;DHT22;51898;49.864;8.550;2023-02-18T20:47:55;10.20;82.10
10089;DHT22;51898;49.864;8.550;2023-02-18T20:51:05;10.20;82.20
10089;DHT22;51898;49.864;8.550;2023-02-18T20:54:08;10.20;82.30
10089;DHT22;51898;49.864;8.550;2023-02-18T20:57:10;10.10;82.20
10089;DHT22;51898;49.864;8.550;2023-02-18T21:00:12;10.20;82.00
10089;DHT22;51898;49.864;8.550;2023-02-18T21:03:14;10.20;82.00
10089;DHT22;51898;49.864;8.550;2023-02-18T21:06:18;10.20;81.90
10089;DHT22;51898;49.864;8.550;2023-02-18T21:09:20;10.20;81.80
10089;DHT22;51898;49.864;8.550;2023-02-18T21:12:22;10.20;81.40
10089;DHT22;51898;49.864;8.550;2023-02-18T21:15:23;10.20;81.00
10089;DHT22;51898;49.864;8.550;2023-02-18T21:18:25;10.20;81.00
10089;DHT22;51898;49.864;8.550;2023-02-18T21:21:27;10.20;81.00
10089;DHT22;51898;49.864;8.550;2023-02-18T21:24:29;10.20;80.70